sensor_id;sensor_type;location;lat;lon;timestamp;temperature;humidity
63960;DHT22;50136;51.374;0.096;2023-07-31T00:02:58;17.00;99.90
63960;DHT22;50136;51.374;0.096;2023-07-31T00:13:02;16.90;99.90
63960;DHT22;50136;51.374;0.096;2023-07-31T00:23:04;16.70;99.90
63960;DHT22;50136;51.374;0.096;2023-07-31T00:33:07;16.70;99.90
63960;DHT22;50136;51.374;0.096;2023-07-31T00:43:09;16.60;99.90
63960;DHT22;50136;51.374;0.096;2023-07-31T00:53:13;16.70;99.90
63960;DHT22;50136;51.374;0.096;2023-07-31T01:03:15;16.80;99.90
63960;DHT22;50136;51.374;0.096;2023-07-31T01:13:19;16.80;99.90
63960;DHT22;50136;51.374;0.096;2023-07-31T01:23:51;16.80;99.90
63960;DHT22;50136;51.374;0.096;2023-07-31T01:34:00;16.90;99.90
63960;DHT22;50136;51.374;0.096;2023-07-31T01:44:03;16.90;99.90
63960;DHT22;50136;51.374;0.096;2023-07-31T01:54:06;16.90;99.90
63960;DHT22;50136;51.374;0.096;2023-07-31T02:04:08;17.00;99.90
63960;DHT22;50136;51.374;0.096;2023-07-31T02:14:12;16.90;99.90
63960;DHT22;50136;51.374;0.096;2023-07-31T02:24:14;17.00;99.90
63960;DHT22;50136;51.374;0.096;2023-07-31T02:34:17;17.10;99.90
63960;DHT22;50136;51.374;0.096;2023-07-31T02:44:19;17.10;99.90
63960;DHT22;50136;51.374;0.096;2023-07-31T02:54:23;17.10;99.90
63960;DHT22;50136;51.374;0.096;2023-07-31T03:04:25;17.20;99.90
63960;DHT22;50136;51.374;0.096;2023-07-31T03:14:28;17.20;99.90
63960;DHT22;50136;51.374;0.096;2023-07-31T03:24:30;17.20;99.90
63960;DHT22;50136;51.374;0.096;2023-07-31T03:34:33;17.30;99.90
63960;DHT22;50136;51.374;0.096;2023-07-31T03:44:35;17.30;99.90
63960;DHT22;50136;51.374;0.096;2023-07-31T03:54:39;17.30;99.90
63960;DHT22;50136;51.374;0.096;2023-07-31T04:04:41;17.40;99.90
63960;DHT22;50136;51.374;0.096;2023-07-31T04:14:44;17.40;99.90
63960;DHT22;50136;51.374;0.096;2023-07-31T04:24:46;17.40;99.90
63960;DHT22;50136;51.374;0.096;2023-07-31T04:34:50;17.50;99.90
63960;DHT22;50136;51.374;0.096;2023-07-31T04:44:52;17.50;99.90
63960;DHT22;50136;51.374;0.096;2023-07-31T04:54:55;17.50;99.90
63960;DHT22;50136;51.374;0.096;2023-07-31T05:04:57;17.60;99.90
63960;DHT22;50136;51.374;0.096;2023-07-31T05:15:01;17.70;99.90
63960;DHT22;50136;51.374;0.096;2023-07-31T05:25:03;17.70;99.90
63960;DHT22;50136;51.374;0.096;2023-07-31T05:35:07;17.80;99.90
63960;DHT22;50136;51.374;0.096;2023-07-31T05:45:10;17.80;99.90
63960;DHT22;50136;51.374;0.096;2023-07-31T05:55:13;17.90;99.90
63960;DHT22;50136;51.374;0.096;2023-07-31T06:05:15;18.10;99.90
63960;DHT22;50136;51.374;0.096;2023-07-31T06:15:19;18.20;99.90
63960;DHT22;50136;51.374;0.096;2023-07-31T06:25:21;18.50;99.90
63960;DHT22;50136;51.374;0.096;2023-07-31T06:35:25;18.70;99.90
63960;DHT22;50136;51.374;0.096;2023-07-31T06:45:27;18.70;99.90
63960;DHT22;50136;51.374;0.096;2023-07-31T06:55:30;19.00;99.90
63960;DHT22;50136;51.374;0.096;2023-07-31T07:05:32;19.30;99.90
63960;DHT22;50136;51.374;0.096;2023-07-31T07:15:36;19.30;99.90
63960;DHT22;50136;51.374;0.096;2023-07-31T07:25:38;19.20;99.90
63960;DHT22;50136;51.374;0.096;2023-07-31T07:35:41;19.30;99.90
63960;DHT22;50136;51.374;0.096;2023-07-31T07:45:43;19.50;99.90
63960;DHT22;50136;51.374;0.096;2023-07-31T07:55:46;19.70;99.90
63960;DHT22;50136;51.374;0.096;2023-07-31T08:05:48;19.90;99.90
63960;DHT22;50136;51.374;0.096;2023-07-31T08:16:06;19.80;99.90
63960;DHT22;50136;51.374;0.096;2023-07-31T08:26:08;20.20;99.90
63960;DHT22;50136;51.374;0.096;2023-07-31T08:36:17;20.40;99.90
63960;DHT22;50136;51.374;0.096;2023-07-31T08:46:20;21.30;99.90
63960;DHT22;50136;51.374;0.096;2023-07-31T08:56:25;21.30;99.90
63960;DHT22;50136;51.374;0.096;2023-07-31T09:06:28;21.10;99.90
63960;DHT22;50136;51.374;0.096;2023-07-31T09:16:33;21.00;99.90
63960;DHT22;50136;51.374;0.096;2023-07-31T09:26:36;20.70;99.90
63960;DHT22;50136;51.374;0.096;2023-07-31T09:36:44;20.60;99.90
63960;DHT22;50136;51.374;0.096;2023-07-31T09:46:47;20.50;99.90
63960;DHT22;50136;51.374;0.096;2023-07-31T09:56:50;20.60;99.90
63960;DHT22;50136;51.374;0.096;2023-07-31T10:06:53;20.50;99.90
63960;DHT22;50136;51.374;0.096;2023-07-31T10:16:58;21.10;99.90
63960;DHT22;50136;51.374;0.096;2023-07-31T10:27:01;21.80;99.90
63960;DHT22;50136;51.374;0.096;2023-07-31T10:37:22;21.60;99.90
63960;DHT22;50136;51.374;0.096;2023-07-31T10:47:25;21.20;99.90
63960;DHT22;50136;51.374;0.096;2023-07-31T10:57:35;21.60;99.90
63960;DHT22;50136;51.374;0.096;2023-07-31T11:07:47;21.80;99.90
63960;DHT22;50136;51.374;0.096;2023-07-31T11:17:50;22.00;99.90
63960;DHT22;50136;51.374;0.096;2023-07-31T11:27:52;21.90;99.90
63960;DHT22;50136;51.374;0.096;2023-07-31T11:37:56;22.00;99.90
63960;DHT22;50136;51.374;0.096;2023-07-31T11:47:58;22.00;99.90
63960;DHT22;50136;51.374;0.096;2023-07-31T11:58:02;21.70;99.90
63960;DHT22;50136;51.374;0.096;2023-07-31T12:08:09;21.60;99.90
63960;DHT22;50136;51.374;0.096;2023-07-31T12:18:14;21.90;99.90
63960;DHT22;50136;51.374;0.096;2023-07-31T12:28:16;22.10;99.90
63960;DHT22;50136;51.374;0.096;2023-07-31T12:38:25;21.20;99.90
63960;DHT22;50136;51.374;0.096;2023-07-31T12:48:27;20.80;99.90
63960;DHT22;50136;51.374;0.096;2023-07-31T12:58:30;20.60;99.90
63960;DHT22;50136;51.374;0.096;2023-07-31T13:08:32;20.60;99.90
63960;DHT22;50136;51.374;0.096;2023-07-31T13:18:36;20.40;99.90
63960;DHT22;50136;51.374;0.096;2023-07-31T13:28:38;19.90;99.90
63960;DHT22;50136;51.374;0.096;2023-07-31T13:38:41;19.40;99.90
63960;DHT22;50136;51.374;0.096;2023-07-31T13:48:43;19.10;99.90
63960;DHT22;50136;51.374;0.096;2023-07-31T13:58:47;18.90;99.90
63960;DHT22;50136;51.374;0.096;2023-07-31T14:08:49;18.50;99.90
63960;DHT22;50136;51.374;0.096;2023-07-31T14:18:52;18.20;99.90
63960;DHT22;50136;51.374;0.096;2023-07-31T14:28:54;18.10;99.90
63960;DHT22;50136;51.374;0.096;2023-07-31T14:38:58;18.00;99.90
63960;DHT22;50136;51.374;0.096;2023-07-31T14:49:00;17.80;99.90
63960;DHT22;50136;51.374;0.096;2023-07-31T14:59:03;17.90;99.90
63960;DHT22;50136;51.374;0.096;2023-07-31T15:09:05;18.10;99.90
63960;DHT22;50136;51.374;0.096;2023-07-31T15:19:09;18.10;99.90
63960;DHT22;50136;51.374;0.096;2023-07-31T15:29:11;18.40;99.90
63960;DHT22;50136;51.374;0.096;2023-07-31T15:39:14;18.90;99.90
63960;DHT22;50136;51.374;0.096;2023-07-31T15:49:16;19.00;99.90
63960;DHT22;50136;51.374;0.096;2023-07-31T15:59:20;19.10;99.90
63960;DHT22;50136;51.374;0.096;2023-07-31T16:09:22;19.30;99.90
63960;DHT22;50136;51.374;0.096;2023-07-31T16:19:25;19.70;99.90
63960;DHT22;50136;51.374;0.096;2023-07-31T16:29:30;19.20;99.90
63960;DHT22;50136;51.374;0.096;2023-07-31T16:39:33;19.50;99.90
63960;DHT22;50136;51.374;0.096;2023-07-31T16:49:35;19.40;99.90
63960;DHT22;50136;51.374;0.096;2023-07-31T16:59:40;19.70;99.90
63960;DHT22;50136;51.374;0.096;2023-07-31T17:09:42;20.10;99.90
63960;DHT22;50136;51.374;0.096;2023-07-31T17:19:45;20.10;99.90
63960;DHT22;50136;51.374;0.096;2023-07-31T17:29:48;19.50;99.90
63960;DHT22;50136;51.374;0.096;2023-07-31T17:39:51;19.20;99.90
63960;DHT22;50136;51.374;0.096;2023-07-31T17:49:53;18.90;99.90
63960;DHT22;50136;51.374;0.096;2023-07-31T17:59:56;19.20;99.90
63960;DHT22;50136;51.374;0.096;2023-07-31T18:09:58;19.40;99.90
63960;DHT22;50136;51.374;0.096;2023-07-31T18:31:05;18.70;99.90
63960;DHT22;50136;51.374;0.096;2023-07-31T18:41:07;18.40;99.90
63960;DHT22;50136;51.374;0.096;2023-07-31T18:51:10;18.20;99.90
63960;DHT22;50136;51.374;0.096;2023-07-31T19:01:12;18.10;99.90
63960;DHT22;50136;51.374;0.096;2023-07-31T19:11:43;17.90;99.90
63960;DHT22;50136;51.374;0.096;2023-07-31T19:21:45;17.80;99.90
63960;DHT22;50136;51.374;0.096;2023-07-31T19:31:48;17.70;99.90
63960;DHT22;50136;51.374;0.096;2023-07-31T19:41:50;17.60;99.90
63960;DHT22;50136;51.374;0.096;2023-07-31T19:51:54;17.40;99.90
63960;DHT22;50136;51.374;0.096;2023-07-31T20:01:56;17.30;99.90
63960;DHT22;50136;51.374;0.096;2023-07-31T20:12:00;17.10;99.90
63960;DHT22;50136;51.374;0.096;2023-07-31T20:22:02;16.90;99.90
63960;DHT22;50136;51.374;0.096;2023-07-31T20:32:06;16.70;99.90
63960;DHT22;50136;51.374;0.096;2023-07-31T20:42:08;16.50;99.90
63960;DHT22;50136;51.374;0.096;2023-07-31T20:52:12;16.40;99.90
63960;DHT22;50136;51.374;0.096;2023-07-31T21:02:14;16.20;99.90
63960;DHT22;50136;51.374;0.096;2023-07-31T21:12:17;16.00;99.90
63960;DHT22;50136;51.374;0.096;2023-07-31T21:22:19;16.00;99.90
63960;DHT22;50136;51.374;0.096;2023-07-31T21:32:23;15.80;99.90
63960;DHT22;50136;51.374;0.096;2023-07-31T21:42:25;15.80;99.90
63960;DHT22;50136;51.374;0.096;2023-07-31T21:52:28;15.80;99.90
63960;DHT22;50136;51.374;0.096;2023-07-31T22:02:30;15.70;99.90
63960;DHT22;50136;51.374;0.096;2023-07-31T22:12:34;15.70;99.90
63960;DHT22;50136;51.374;0.096;2023-07-31T22:22:36;15.70;99.90
63960;DHT22;50136;51.374;0.096;2023-07-31T22:32:40;15.60;99.90
63960;DHT22;50136;51.374;0.096;2023-07-31T22:42:42;15.70;99.90
63960;DHT22;50136;51.374;0.096;2023-07-31T22:52:45;15.70;99.90
63960;DHT22;50136;51.374;0.096;2023-07-31T23:02:47;15.60;99.90
63960;DHT22;50136;51.374;0.096;2023-07-31T23:12:51;15.60;99.90
63960;DHT22;50136;51.374;0.096;2023-07-31T23:22:53;15.50;99.90
63960;DHT22;50136;51.374;0.096;2023-07-31T23:32:56;15.50;99.90
63960;DHT22;50136;51.374;0.096;2023-07-31T23:42:58;15.50;99.90
63960;DHT22;50136;51.374;0.096;2023-07-31T23:53:02;15.50;99.90
